sensor_id;sensor_type;location;lat;lon;timestamp;pressure;altitude;pressure_sealevel;temperature;humidity
30682;BME280;17439;48.092;11.842;2022-12-20T00:00:51;96119.44;;;2.75;70.06
30682;BME280;17439;48.092;11.842;2022-12-20T00:03:18;96124.78;;;2.75;70.07
30682;BME280;17439;48.092;11.842;2022-12-20T00:05:45;96123.16;;;2.73;70.16
30682;BME280;17439;48.092;11.842;2022-12-20T00:08:12;96121.31;;;2.74;70.25
30682;BME280;17439;48.092;11.842;2022-12-20T00:10:41;96114.31;;;2.73;70.17
30682;BME280;17439;48.092;11.842;2022-12-20T00:13:09;96117.00;;;2.73;70.10
30682;BME280;17439;48.092;11.842;2022-12-20T00:15:36;96120.72;;;2.72;69.94
30682;BME280;17439;48.092;11.842;2022-12-20T00:18:03;96115.34;;;2.72;69.83
30682;BME280;17439;48.092;11.842;2022-12-20T00:20:30;96099.81;;;2.69;69.86
30682;BME280;17439;48.092;11.842;2022-12-20T00:22:56;96105.97;;;2.69;69.94
30682;BME280;17439;48.092;11.842;2022-12-20T00:25:23;96116.69;;;2.69;70.25
30682;BME280;17439;48.092;11.842;2022-12-20T00:27:49;96112.13;;;2.70;70.25
30682;BME280;17439;48.092;11.842;2022-12-20T00:30:16;96101.41;;;2.70;70.12
30682;BME280;17439;48.092;11.842;2022-12-20T00:32:44;96104.34;;;2.68;70.31
30682;BME280;17439;48.092;11.842;2022-12-20T00:35:12;96113.75;;;2.71;70.44
30682;BME280;17439;48.092;11.842;2022-12-20T00:37:39;96113.75;;;2.71;70.54
30682;BME280;17439;48.092;11.842;2022-12-20T00:40:06;96104.66;;;2.72;70.43
30682;BME280;17439;48.092;11.842;2022-12-20T00:42:33;96103.84;;;2.71;70.61
30682;BME280;17439;48.092;11.842;2022-12-20T00:44:59;96103.59;;;2.73;70.48
30682;BME280;17439;48.092;11.842;2022-12-20T00:47:26;96097.19;;;2.74;70.60
30682;BME280;17439;48.092;11.842;2022-12-20T00:49:53;96100.44;;;2.76;70.78
30682;BME280;17439;48.092;11.842;2022-12-20T00:52:19;96102.06;;;2.77;70.90
30682;BME280;17439;48.092;11.842;2022-12-20T00:54:46;96106.94;;;2.80;70.71
30682;BME280;17439;48.092;11.842;2022-12-20T00:57:12;96094.09;;;2.82;70.94
30682;BME280;17439;48.092;11.842;2022-12-20T00:59:39;96094.66;;;2.84;70.83
30682;BME280;17439;48.092;11.842;2022-12-20T01:02:06;96089.88;;;2.86;70.62
30682;BME280;17439;48.092;11.842;2022-12-20T01:04:33;96087.78;;;2.88;70.84
30682;BME280;17439;48.092;11.842;2022-12-20T01:06:59;96099.03;;;2.90;70.98
30682;BME280;17439;48.092;11.842;2022-12-20T01:09:26;96103.34;;;2.92;70.84
30682;BME280;17439;48.092;11.842;2022-12-20T01:11:52;96106.59;;;2.94;70.90
30682;BME280;17439;48.092;11.842;2022-12-20T01:14:19;96100.97;;;2.95;70.96
30682;BME280;17439;48.092;11.842;2022-12-20T01:16:46;96100.72;;;2.97;71.06
30682;BME280;17439;48.092;11.842;2022-12-20T01:19:15;96103.97;;;2.99;70.82
30682;BME280;17439;48.092;11.842;2022-12-20T01:21:42;96097.56;;;3.00;71.05
30682;BME280;17439;48.092;11.842;2022-12-20T01:24:11;96091.72;;;3.03;70.80
30682;BME280;17439;48.092;11.842;2022-12-20T01:26:37;96098.72;;;3.04;71.07
30682;BME280;17439;48.092;11.842;2022-12-20T01:29:04;96089.59;;;3.05;71.10
30682;BME280;17439;48.092;11.842;2022-12-20T01:31:31;96097.13;;;3.08;71.00
30682;BME280;17439;48.092;11.842;2022-12-20T01:33:58;96102.50;;;3.08;71.12
30682;BME280;17439;48.092;11.842;2022-12-20T01:36:27;96100.38;;;3.10;71.10
30682;BME280;17439;48.092;11.842;2022-12-20T01:39:00;96094.75;;;3.12;70.83
30682;BME280;17439;48.092;11.842;2022-12-20T01:41:28;96090.00;;;3.14;71.13
30682;BME280;17439;48.092;11.842;2022-12-20T01:43:57;96082.50;;;3.16;71.15
30682;BME280;17439;48.092;11.842;2022-12-20T01:46:26;96066.44;;;3.16;70.76
30682;BME280;17439;48.092;11.842;2022-12-20T01:49:11;96065.13;;;3.18;70.37
30682;BME280;17439;48.092;11.842;2022-12-20T01:51:43;96077.47;;;3.19;70.73
30682;BME280;17439;48.092;11.842;2022-12-20T01:54:15;96066.50;;;3.21;70.64
30682;BME280;17439;48.092;11.842;2022-12-20T01:56:46;96075.34;;;3.21;70.58
30682;BME280;17439;48.092;11.842;2022-12-20T01:59:15;96072.94;;;3.20;70.78
30682;BME280;17439;48.092;11.842;2022-12-20T02:01:42;96073.72;;;3.20;70.80
30682;BME280;17439;48.092;11.842;2022-12-20T02:04:10;96075.59;;;3.20;70.73
30682;BME280;17439;48.092;11.842;2022-12-20T02:06:37;96085.50;;;3.19;70.62
30682;BME280;17439;48.092;11.842;2022-12-20T02:09:04;96070.00;;;3.21;70.64
30682;BME280;17439;48.092;11.842;2022-12-20T02:14:31;96061.38;;;3.19;69.83
30682;BME280;17439;48.092;11.842;2022-12-20T02:17:12;96070.00;;;3.21;69.91
30682;BME280;17439;48.092;11.842;2022-12-20T02:31:12;96062.03;;;3.26;70.77
30682;BME280;17439;48.092;11.842;2022-12-20T02:33:42;96062.03;;;3.26;70.55
30682;BME280;17439;48.092;11.842;2022-12-20T02:36:13;96063.38;;;3.29;70.69
30682;BME280;17439;48.092;11.842;2022-12-20T02:38:40;96055.31;;;3.29;70.91
30682;BME280;17439;48.092;11.842;2022-12-20T02:43:39;96054.03;;;3.32;70.59
30682;BME280;17439;48.092;11.842;2022-12-20T02:46:09;96053.78;;;3.33;70.72
30682;BME280;17439;48.092;11.842;2022-12-20T02:48:37;96057.25;;;3.34;70.73
30682;BME280;17439;48.092;11.842;2022-12-20T02:51:07;96060.78;;;3.34;70.55
30682;BME280;17439;48.092;11.842;2022-12-20T02:53:36;96061.56;;;3.35;70.65
30682;BME280;17439;48.092;11.842;2022-12-20T02:56:14;96063.47;;;3.34;69.93
30682;BME280;17439;48.092;11.842;2022-12-20T02:58:50;96058.09;;;3.34;70.17
30682;BME280;17439;48.092;11.842;2022-12-20T03:01:24;96069.38;;;3.36;69.98
30682;BME280;17439;48.092;11.842;2022-12-20T03:03:53;96068.31;;;3.37;70.53
30682;BME280;17439;48.092;11.842;2022-12-20T03:06:20;96065.63;;;3.37;70.57
30682;BME280;17439;48.092;11.842;2022-12-20T03:08:47;96053.84;;;3.38;70.56
30682;BME280;17439;48.092;11.842;2022-12-20T03:11:13;96044.19;;;3.37;70.37
30682;BME280;17439;48.092;11.842;2022-12-20T03:13:40;96037.75;;;3.38;70.64
30682;BME280;17439;48.092;11.842;2022-12-20T03:16:08;96023.56;;;3.38;70.57
30682;BME280;17439;48.092;11.842;2022-12-20T03:18:36;96038.75;;;3.32;69.43
30682;BME280;17439;48.092;11.842;2022-12-20T03:21:02;96047.13;;;3.36;70.35
30682;BME280;17439;48.092;11.842;2022-12-20T03:23:29;96045.25;;;3.36;70.19
30682;BME280;17439;48.092;11.842;2022-12-20T03:25:56;96045.50;;;3.35;70.17
30682;BME280;17439;48.092;11.842;2022-12-20T03:28:30;96053.53;;;3.35;70.42
30682;BME280;17439;48.092;11.842;2022-12-20T03:30:56;96062.63;;;3.34;70.44
30682;BME280;17439;48.092;11.842;2022-12-20T03:33:23;96059.94;;;3.34;70.46
30682;BME280;17439;48.092;11.842;2022-12-20T03:35:50;96061.03;;;3.33;70.27
30682;BME280;17439;48.092;11.842;2022-12-20T03:38:17;96061.03;;;3.33;70.41
30682;BME280;17439;48.092;11.842;2022-12-20T03:40:44;96059.16;;;3.33;70.37
30682;BME280;17439;48.092;11.842;2022-12-20T03:43:14;96045.50;;;3.35;70.42
30682;BME280;17439;48.092;11.842;2022-12-20T03:45:41;96046.53;;;3.34;70.48
30682;BME280;17439;48.092;11.842;2022-12-20T03:48:07;96035.81;;;3.34;70.36
30682;BME280;17439;48.092;11.842;2022-12-20T03:50:34;96031.28;;;3.34;70.44
30682;BME280;17439;48.092;11.842;2022-12-20T03:53:01;96018.94;;;3.33;70.38
30682;BME280;17439;48.092;11.842;2022-12-20T03:55:27;96025.09;;;3.34;70.54
30682;BME280;17439;48.092;11.842;2022-12-20T03:57:54;96013.59;;;3.33;70.54
30682;BME280;17439;48.092;11.842;2022-12-20T04:00:28;96014.38;;;3.34;70.65
30682;BME280;17439;48.092;11.842;2022-12-20T04:03:11;96019.75;;;3.34;70.61
30682;BME280;17439;48.092;11.842;2022-12-20T04:05:38;96009.03;;;3.34;70.47
30682;BME280;17439;48.092;11.842;2022-12-20T04:08:05;96009.03;;;3.34;70.48
30682;BME280;17439;48.092;11.842;2022-12-20T04:10:31;96011.94;;;3.32;70.58
30682;BME280;17439;48.092;11.842;2022-12-20T04:12:58;96016.25;;;3.33;70.82
30682;BME280;17439;48.092;11.842;2022-12-20T04:15:24;96014.38;;;3.34;70.68
30682;BME280;17439;48.092;11.842;2022-12-20T04:17:51;96017.06;;;3.34;70.86
30682;BME280;17439;48.092;11.842;2022-12-20T04:20:18;96025.09;;;3.34;70.59
30682;BME280;17439;48.092;11.842;2022-12-20T04:23:03;96029.41;;;3.35;70.66
30682;BME280;17439;48.092;11.842;2022-12-20T04:25:29;96023.25;;;3.34;70.57
30682;BME280;17439;48.092;11.842;2022-12-20T04:27:56;96020.88;;;3.38;70.52
30682;BME280;17439;48.092;11.842;2022-12-20T04:30:23;96020.88;;;3.38;70.55
30682;BME280;17439;48.092;11.842;2022-12-20T04:32:49;96019.00;;;3.38;70.49
30682;BME280;17439;48.092;11.842;2022-12-20T04:35:16;96013.38;;;3.40;70.52
30682;BME280;17439;48.092;11.842;2022-12-20T04:37:44;96009.66;;;3.41;70.54
30682;BME280;17439;48.092;11.842;2022-12-20T04:40:12;96013.94;;;3.42;70.67
30682;BME280;17439;48.092;11.842;2022-12-20T04:42:49;96012.09;;;3.42;70.62
30682;BME280;17439;48.092;11.842;2022-12-20T04:45:16;96020.66;;;3.44;70.65
30682;BME280;17439;48.092;11.842;2022-12-20T04:47:47;96017.75;;;3.46;70.69
30682;BME280;17439;48.092;11.842;2022-12-20T04:50:16;96009.44;;;3.48;70.42
30682;BME280;17439;48.092;11.842;2022-12-20T04:52:44;96018.28;;;3.48;70.45
30682;BME280;17439;48.092;11.842;2022-12-20T04:55:14;96008.66;;;3.47;70.39
30682;BME280;17439;48.092;11.842;2022-12-20T04:57:41;96011.88;;;3.49;70.49
30682;BME280;17439;48.092;11.842;2022-12-20T05:00:08;96010.25;;;3.48;70.30
30682;BME280;17439;48.092;11.842;2022-12-20T05:02:41;96004.88;;;3.48;70.24
30682;BME280;17439;48.092;11.842;2022-12-20T05:05:11;96001.16;;;3.49;70.17
30682;BME280;17439;48.092;11.842;2022-12-20T05:07:45;95995.00;;;3.49;70.43
30682;BME280;17439;48.092;11.842;2022-12-20T05:10:12;95988.81;;;3.48;70.14
30682;BME280;17439;48.092;11.842;2022-12-20T05:12:39;95984.28;;;3.49;70.23
30682;BME280;17439;48.092;11.842;2022-12-20T05:15:11;95987.75;;;3.49;70.34
30682;BME280;17439;48.092;11.842;2022-12-20T05:17:38;95987.50;;;3.51;70.26
30682;BME280;17439;48.092;11.842;2022-12-20T05:20:05;95964.16;;;3.51;70.44
30682;BME280;17439;48.092;11.842;2022-12-20T05:22:32;95962.31;;;3.52;70.30
30682;BME280;17439;48.092;11.842;2022-12-20T05:25:04;95970.91;;;3.54;70.32
30682;BME280;17439;48.092;11.842;2022-12-20T05:27:35;95960.19;;;3.54;70.30
30682;BME280;17439;48.092;11.842;2022-12-20T05:30:03;95957.25;;;3.55;70.35
30682;BME280;17439;48.092;11.842;2022-12-20T05:32:30;95958.88;;;3.56;70.57
30682;BME280;17439;48.092;11.842;2022-12-20T05:34:57;95953.53;;;3.56;70.58
30682;BME280;17439;48.092;11.842;2022-12-20T05:37:24;95956.19;;;3.56;70.32
30682;BME280;17439;48.092;11.842;2022-12-20T05:39:50;95946.03;;;3.58;70.45
30682;BME280;17439;48.092;11.842;2022-12-20T05:42:21;95951.38;;;3.58;70.65
30682;BME280;17439;48.092;11.842;2022-12-20T05:44:50;95956.25;;;3.61;70.63
30682;BME280;17439;48.092;11.842;2022-12-20T05:47:18;95948.75;;;3.63;70.74
30682;BME280;17439;48.092;11.842;2022-12-20T05:49:46;95944.44;;;3.62;70.59
30682;BME280;17439;48.092;11.842;2022-12-20T05:52:12;95949.28;;;3.66;70.54
30682;BME280;17439;48.092;11.842;2022-12-20T05:54:40;95939.13;;;3.68;70.51
30682;BME280;17439;48.092;11.842;2022-12-20T05:57:11;95947.19;;;3.68;70.52
30682;BME280;17439;48.092;11.842;2022-12-20T05:59:39;95950.41;;;3.70;70.66
30682;BME280;17439;48.092;11.842;2022-12-20T06:02:13;95943.16;;;3.70;70.55
30682;BME280;17439;48.092;11.842;2022-12-20T06:04:41;95942.59;;;3.63;69.13
30682;BME280;17439;48.092;11.842;2022-12-20T06:07:14;95927.91;;;3.71;70.45
30682;BME280;17439;48.092;11.842;2022-12-20T06:09:44;95918.78;;;3.72;70.17
30682;BME280;17439;48.092;11.842;2022-12-20T06:12:14;95931.38;;;3.71;70.09
30682;BME280;17439;48.092;11.842;2022-12-20T06:14:41;95934.31;;;3.70;70.04
30682;BME280;17439;48.092;11.842;2022-12-20T06:17:10;95933.78;;;3.68;70.04
30682;BME280;17439;48.092;11.842;2022-12-20T06:19:37;95931.34;;;3.66;69.93
30682;BME280;17439;48.092;11.842;2022-12-20T06:22:03;95928.91;;;3.65;69.81
30682;BME280;17439;48.092;11.842;2022-12-20T06:24:41;95933.13;;;3.55;68.99
30682;BME280;17439;48.092;11.842;2022-12-20T06:27:14;95935.28;;;3.58;69.54
30682;BME280;17439;48.092;11.842;2022-12-20T06:29:41;95925.63;;;3.57;69.45
30682;BME280;17439;48.092;11.842;2022-12-20T06:32:10;95935.25;;;3.53;69.46
30682;BME280;17439;48.092;11.842;2022-12-20T06:34:37;95933.88;;;3.51;69.78
30682;BME280;17439;48.092;11.842;2022-12-20T06:37:04;95931.44;;;3.49;70.06
30682;BME280;17439;48.092;11.842;2022-12-20T06:39:33;95933.34;;;3.49;70.19
30682;BME280;17439;48.092;11.842;2022-12-20T06:42:03;95933.59;;;3.47;70.27
30682;BME280;17439;48.092;11.842;2022-12-20T06:44:32;95936.81;;;3.49;70.36
30682;BME280;17439;48.092;11.842;2022-12-20T06:46:59;95943.81;;;3.50;70.29
30682;BME280;17439;48.092;11.842;2022-12-20T06:49:25;95927.72;;;3.50;70.50
30682;BME280;17439;48.092;11.842;2022-12-20T06:51:52;95929.91;;;3.53;70.64
30682;BME280;17439;48.092;11.842;2022-12-20T06:54:24;95930.44;;;3.55;70.53
30682;BME280;17439;48.092;11.842;2022-12-20T06:56:51;95921.34;;;3.56;70.61
30682;BME280;17439;48.092;11.842;2022-12-20T06:59:19;95924.56;;;3.58;70.57
30682;BME280;17439;48.092;11.842;2022-12-20T07:01:46;95927.81;;;3.60;70.38
30682;BME280;17439;48.092;11.842;2022-12-20T07:04:13;95927.81;;;3.60;70.48
30682;BME280;17439;48.092;11.842;2022-12-20T07:06:39;95932.66;;;3.63;70.65
30682;BME280;17439;48.092;11.842;2022-12-20T07:09:06;95936.13;;;3.64;70.45
30682;BME280;17439;48.092;11.842;2022-12-20T07:11:32;95918.19;;;3.65;70.59
30682;BME280;17439;48.092;11.842;2022-12-20T07:13:59;95912.31;;;3.68;70.55
30682;BME280;17439;48.092;11.842;2022-12-20T07:16:26;95920.91;;;3.70;70.73
30682;BME280;17439;48.092;11.842;2022-12-20T07:18:53;95916.09;;;3.72;70.56
30682;BME280;17439;48.092;11.842;2022-12-20T07:21:19;95916.38;;;3.75;70.67
30682;BME280;17439;48.092;11.842;2022-12-20T07:23:46;95913.69;;;3.75;70.58
30682;BME280;17439;48.092;11.842;2022-12-20T07:26:14;95915.88;;;3.78;70.55
30682;BME280;17439;48.092;11.842;2022-12-20T07:28:41;95916.69;;;3.79;70.41
30682;BME280;17439;48.092;11.842;2022-12-20T07:31:08;95906.53;;;3.81;70.63
30682;BME280;17439;48.092;11.842;2022-12-20T07:33:34;95909.75;;;3.83;70.56
30682;BME280;17439;48.092;11.842;2022-12-20T07:36:07;95906.56;;;3.86;70.47
30682;BME280;17439;48.092;11.842;2022-12-20T07:38:34;95908.97;;;3.88;70.66
30682;BME280;17439;48.092;11.842;2022-12-20T07:41:13;95915.97;;;3.89;70.23
30682;BME280;17439;48.092;11.842;2022-12-20T07:43:40;95919.75;;;3.93;70.88
30682;BME280;17439;48.092;11.842;2022-12-20T07:46:08;95928.66;;;3.98;71.14
30682;BME280;17439;48.092;11.842;2022-12-20T07:48:35;95931.38;;;4.04;70.94
30682;BME280;17439;48.092;11.842;2022-12-20T07:51:31;95933.28;;;4.08;70.11
30682;BME280;17439;48.092;11.842;2022-12-20T07:54:05;95935.72;;;4.15;70.69
30682;BME280;17439;48.092;11.842;2022-12-20T07:56:36;95934.72;;;4.21;70.66
30682;BME280;17439;48.092;11.842;2022-12-20T07:59:09;95934.19;;;4.24;70.67
30682;BME280;17439;48.092;11.842;2022-12-20T08:01:36;95938.00;;;4.28;70.67
30682;BME280;17439;48.092;11.842;2022-12-20T08:04:13;95932.34;;;4.30;69.52
30682;BME280;17439;48.092;11.842;2022-12-20T08:06:41;95933.19;;;4.35;70.59
30682;BME280;17439;48.092;11.842;2022-12-20T08:09:10;95936.44;;;4.38;70.28
30682;BME280;17439;48.092;11.842;2022-12-20T08:11:39;95934.03;;;4.41;70.38
30682;BME280;17439;48.092;11.842;2022-12-20T08:14:06;95942.38;;;4.45;70.65
30682;BME280;17439;48.092;11.842;2022-12-20T08:16:33;95937.28;;;4.48;70.55
30682;BME280;17439;48.092;11.842;2022-12-20T08:19:00;95944.56;;;4.53;70.57
30682;BME280;17439;48.092;11.842;2022-12-20T08:21:26;95936.56;;;4.58;70.85
30682;BME280;17439;48.092;11.842;2022-12-20T08:23:56;95934.16;;;4.62;70.14
30682;BME280;17439;48.092;11.842;2022-12-20T08:26:22;95937.66;;;4.67;70.77
30682;BME280;17439;48.092;11.842;2022-12-20T08:28:49;95943.06;;;4.72;70.82
30682;BME280;17439;48.092;11.842;2022-12-20T08:31:16;95932.88;;;4.80;70.84
30682;BME280;17439;48.092;11.842;2022-12-20T08:33:42;95929.16;;;4.86;70.43
30682;BME280;17439;48.092;11.842;2022-12-20T08:36:11;95924.88;;;4.90;70.16
30682;BME280;17439;48.092;11.842;2022-12-20T08:38:38;95923.28;;;4.94;70.35
30682;BME280;17439;48.092;11.842;2022-12-20T08:41:10;95922.75;;;4.97;69.79
30682;BME280;17439;48.092;11.842;2022-12-20T08:43:38;95919.28;;;5.02;70.16
30682;BME280;17439;48.092;11.842;2022-12-20T08:46:05;95918.75;;;5.05;69.93
30682;BME280;17439;48.092;11.842;2022-12-20T08:48:32;95930.84;;;5.07;69.74
30682;BME280;17439;48.092;11.842;2022-12-20T08:51:01;95922.78;;;5.07;69.48
30682;BME280;17439;48.092;11.842;2022-12-20T08:53:29;95919.56;;;5.11;69.73
30682;BME280;17439;48.092;11.842;2022-12-20T08:56:07;95927.09;;;5.08;68.30
30682;BME280;17439;48.092;11.842;2022-12-20T08:58:34;95930.88;;;5.13;70.17
30682;BME280;17439;48.092;11.842;2022-12-20T09:01:04;95932.47;;;5.14;69.53
30682;BME280;17439;48.092;11.842;2022-12-20T09:03:33;95926.56;;;5.17;69.96
30682;BME280;17439;48.092;11.842;2022-12-20T09:06:04;95928.47;;;5.21;69.79
30682;BME280;17439;48.092;11.842;2022-12-20T09:08:35;95924.97;;;5.26;70.47
30682;BME280;17439;48.092;11.842;2022-12-20T09:11:07;95928.50;;;5.32;69.49
30682;BME280;17439;48.092;11.842;2022-12-20T09:13:34;95920.72;;;5.40;70.61
30682;BME280;17439;48.092;11.842;2022-12-20T09:16:10;95919.66;;;5.47;70.31
30682;BME280;17439;48.092;11.842;2022-12-20T09:18:37;95925.59;;;5.54;70.36
30682;BME280;17439;48.092;11.842;2022-12-20T09:21:07;95914.81;;;5.59;69.38
30682;BME280;17439;48.092;11.842;2022-12-20T09:23:35;95913.22;;;5.68;70.08
30682;BME280;17439;48.092;11.842;2022-12-20T09:26:04;95908.63;;;5.74;69.77
30682;BME280;17439;48.092;11.842;2022-12-20T09:28:32;95908.38;;;5.80;69.89
30682;BME280;17439;48.092;11.842;2022-12-20T09:31:00;95905.13;;;5.84;69.83
30682;BME280;17439;48.092;11.842;2022-12-20T09:33:28;95902.47;;;5.89;69.67
30682;BME280;17439;48.092;11.842;2022-12-20T09:35:54;95898.97;;;5.93;69.69
30682;BME280;17439;48.092;11.842;2022-12-20T09:38:21;95899.78;;;5.99;69.41
30682;BME280;17439;48.092;11.842;2022-12-20T09:40:51;95897.09;;;6.04;69.26
30682;BME280;17439;48.092;11.842;2022-12-20T09:43:19;95895.22;;;6.10;69.37
30682;BME280;17439;48.092;11.842;2022-12-20T09:45:50;95902.22;;;6.11;68.10
30682;BME280;17439;48.092;11.842;2022-12-20T09:48:21;95895.19;;;6.15;68.42
30682;BME280;17439;48.092;11.842;2022-12-20T09:53:27;95885.25;;;6.21;68.92
30682;BME280;17439;48.092;11.842;2022-12-20T09:56:04;95880.38;;;6.23;67.41
30682;BME280;17439;48.092;11.842;2022-12-20T10:01:19;95877.69;;;6.28;67.04
30682;BME280;17439;48.092;11.842;2022-12-20T10:03:51;95865.28;;;6.32;69.11
30682;BME280;17439;48.092;11.842;2022-12-20T10:08:58;95857.72;;;6.39;66.82
30682;BME280;17439;48.092;11.842;2022-12-20T10:14:22;95851.25;;;6.45;66.51
30682;BME280;17439;48.092;11.842;2022-12-20T10:16:57;95848.53;;;6.50;67.36
30682;BME280;17439;48.092;11.842;2022-12-20T10:20:37;95850.66;;;6.53;65.17
30682;BME280;17439;48.092;11.842;2022-12-20T10:23:06;95840.97;;;6.58;65.38
30682;BME280;17439;48.092;11.842;2022-12-20T10:25:34;95840.94;;;6.63;68.59
30682;BME280;17439;48.092;11.842;2022-12-20T10:28:04;95829.88;;;6.64;67.96
30682;BME280;17439;48.092;11.842;2022-12-20T10:30:36;95832.81;;;6.68;68.67
30682;BME280;17439;48.092;11.842;2022-12-20T10:33:03;95825.81;;;6.72;68.76
30682;BME280;17439;48.092;11.842;2022-12-20T10:35:33;95826.88;;;6.76;67.76
30682;BME280;17439;48.092;11.842;2022-12-20T10:38:04;95826.84;;;6.81;68.66
30682;BME280;17439;48.092;11.842;2022-12-20T10:40:37;95826.53;;;6.88;68.60
30682;BME280;17439;48.092;11.842;2022-12-20T10:43:24;95812.75;;;6.95;69.13
30682;BME280;17439;48.092;11.842;2022-12-20T10:46:06;95822.44;;;7.01;66.57
30682;BME280;17439;48.092;11.842;2022-12-20T10:48:36;95817.25;;;7.10;68.71
30682;BME280;17439;48.092;11.842;2022-12-20T10:51:12;95809.94;;;7.15;68.55
30682;BME280;17439;48.092;11.842;2022-12-20T10:54:02;95798.31;;;7.20;65.38
30682;BME280;17439;48.092;11.842;2022-12-20T10:56:34;95794.78;;;7.24;67.59
30682;BME280;17439;48.092;11.842;2022-12-20T11:01:46;95791.47;;;7.33;65.95
30682;BME280;17439;48.092;11.842;2022-12-20T11:04:33;95780.41;;;7.34;64.38
30682;BME280;17439;48.092;11.842;2022-12-20T11:07:01;95769.34;;;7.36;66.95
30682;BME280;17439;48.092;11.842;2022-12-20T11:09:34;95775.53;;;7.36;65.50
30682;BME280;17439;48.092;11.842;2022-12-20T11:14:29;95772.53;;;7.38;66.95
30682;BME280;17439;48.092;11.842;2022-12-20T11:17:35;95768.25;;;7.37;63.57
30682;BME280;17439;48.092;11.842;2022-12-20T11:20:24;95762.03;;;7.36;63.95
30682;BME280;17439;48.092;11.842;2022-12-20T11:23:06;95760.69;;;7.39;65.81
30682;BME280;17439;48.092;11.842;2022-12-20T11:36:30;95741.22;;;7.42;64.99
30682;BME280;17439;48.092;11.842;2022-12-20T11:39:12;95732.84;;;7.43;64.91
30682;BME280;17439;48.092;11.842;2022-12-20T11:41:54;95737.97;;;7.45;64.10
30682;BME280;17439;48.092;11.842;2022-12-20T11:50:41;95732.00;;;7.48;63.97
30682;BME280;17439;48.092;11.842;2022-12-20T11:55:59;95721.44;;;7.52;65.91
30682;BME280;17439;48.092;11.842;2022-12-20T11:58:53;95719.53;;;7.52;64.74
30682;BME280;17439;48.092;11.842;2022-12-20T12:01:26;95712.78;;;7.55;65.54
30682;BME280;17439;48.092;11.842;2022-12-20T12:04:13;95703.31;;;7.57;63.93
30682;BME280;17439;48.092;11.842;2022-12-20T12:07:07;95697.94;;;7.57;63.85
30682;BME280;17439;48.092;11.842;2022-12-20T12:09:39;95691.97;;;7.60;65.58
30682;BME280;17439;48.092;11.842;2022-12-20T12:12:16;95680.06;;;7.61;64.75
30682;BME280;17439;48.092;11.842;2022-12-20T12:14:51;95674.66;;;7.61;65.07
30682;BME280;17439;48.092;11.842;2022-12-20T12:19:53;95671.19;;;7.61;65.16
30682;BME280;17439;48.092;11.842;2022-12-20T12:22:28;95664.44;;;7.58;64.60
30682;BME280;17439;48.092;11.842;2022-12-20T12:25:01;95677.44;;;7.56;64.94
30682;BME280;17439;48.092;11.842;2022-12-20T12:27:31;95670.69;;;7.54;65.60
30682;BME280;17439;48.092;11.842;2022-12-20T12:29:58;95667.78;;;7.50;65.79
30682;BME280;17439;48.092;11.842;2022-12-20T12:32:39;95663.50;;;7.44;63.97
30682;BME280;17439;48.092;11.842;2022-12-20T12:38:08;95657.69;;;7.32;62.38
30682;BME280;17439;48.092;11.842;2022-12-20T12:48:58;95659.22;;;7.14;62.73
30682;BME280;17439;48.092;11.842;2022-12-20T12:51:30;95659.78;;;7.11;64.69
30682;BME280;17439;48.092;11.842;2022-12-20T13:04:30;95669.63;;;6.96;65.59
30682;BME280;17439;48.092;11.842;2022-12-20T13:11:53;95655.94;;;6.87;65.13
30682;BME280;17439;48.092;11.842;2022-12-20T13:19:53;95647.66;;;6.79;65.19
30682;BME280;17439;48.092;11.842;2022-12-20T13:22:22;95647.94;;;6.77;65.58
30682;BME280;17439;48.092;11.842;2022-12-20T13:24:57;95646.91;;;6.73;63.80
30682;BME280;17439;48.092;11.842;2022-12-20T13:27:27;95651.47;;;6.72;65.09
30682;BME280;17439;48.092;11.842;2022-12-20T13:29:56;95648.78;;;6.72;65.70
30682;BME280;17439;48.092;11.842;2022-12-20T13:37:54;95638.31;;;6.66;65.23
30682;BME280;17439;48.092;11.842;2022-12-20T13:43:13;95630.78;;;6.63;64.71
30682;BME280;17439;48.092;11.842;2022-12-20T13:45:45;95637.28;;;6.62;65.30
30682;BME280;17439;48.092;11.842;2022-12-20T13:48:18;95641.06;;;6.61;64.97
30682;BME280;17439;48.092;11.842;2022-12-20T13:50:54;95641.34;;;6.59;64.35
30682;BME280;17439;48.092;11.842;2022-12-20T13:53:23;95641.34;;;6.59;65.76
30682;BME280;17439;48.092;11.842;2022-12-20T13:55:51;95641.63;;;6.58;65.85
30682;BME280;17439;48.092;11.842;2022-12-20T13:58:21;95633.03;;;6.56;65.54
30682;BME280;17439;48.092;11.842;2022-12-20T14:00:50;95633.81;;;6.56;66.14
30682;BME280;17439;48.092;11.842;2022-12-20T14:03:21;95633.31;;;6.54;65.60
30682;BME280;17439;48.092;11.842;2022-12-20T14:05:53;95630.31;;;6.56;65.57
30682;BME280;17439;48.092;11.842;2022-12-20T14:08:24;95630.34;;;6.50;64.61
30682;BME280;17439;48.092;11.842;2022-12-20T14:10:52;95624.66;;;6.52;65.64
30682;BME280;17439;48.092;11.842;2022-12-20T14:13:24;95628.47;;;6.51;65.11
30682;BME280;17439;48.092;11.842;2022-12-20T14:15:52;95621.97;;;6.52;65.77
30682;BME280;17439;48.092;11.842;2022-12-20T14:18:21;95616.06;;;6.50;65.68
30682;BME280;17439;48.092;11.842;2022-12-20T14:20:57;95613.38;;;6.50;65.37
30682;BME280;17439;48.092;11.842;2022-12-20T14:23:48;95612.59;;;6.49;64.43
30682;BME280;17439;48.092;11.842;2022-12-20T14:26:17;95615.53;;;6.53;65.53
30682;BME280;17439;48.092;11.842;2022-12-20T14:28:53;95606.88;;;6.56;64.86
30682;BME280;17439;48.092;11.842;2022-12-20T14:33:48;95579.59;;;6.63;65.99
30682;BME280;17439;48.092;11.842;2022-12-20T14:38:43;95581.69;;;6.71;65.40
30682;BME280;17439;48.092;11.842;2022-12-20T14:41:38;95581.19;;;6.69;61.95
30682;BME280;17439;48.092;11.842;2022-12-20T14:44:20;95579.53;;;6.73;62.63
30682;BME280;17439;48.092;11.842;2022-12-20T14:46:52;95565.78;;;6.75;64.17
30682;BME280;17439;48.092;11.842;2022-12-20T14:49:25;95569.28;;;6.75;63.83
30682;BME280;17439;48.092;11.842;2022-12-20T14:52:04;95564.16;;;6.74;62.70
30682;BME280;17439;48.092;11.842;2022-12-20T14:54:32;95555.56;;;6.71;64.72
30682;BME280;17439;48.092;11.842;2022-12-20T15:00:11;95546.16;;;6.69;63.82